createdAt,value
2023-02-15T00:02:57.803Z,3.16
2023-02-15T00:08:01.012Z,3.17
2023-02-15T00:13:04.203Z,3.17
2023-02-15T00:18:07.820Z,3.17
2023-02-15T00:23:10.925Z,3.17
2023-02-15T00:28:14.132Z,3.16
2023-02-15T00:33:17.248Z,3.15
2023-02-15T00:38:20.242Z,3.13
2023-02-15T00:43:23.553Z,3.13
2023-02-15T00:48:26.840Z,3.12
2023-02-15T00:53:30.684Z,3.11
2023-02-15T00:58:33.794Z,3.09
2023-02-15T01:03:37.121Z,3.08
2023-02-15T01:08:40.007Z,3.07
2023-02-15T01:13:43.419Z,3.07
2023-02-15T01:18:47.445Z,3.06
2023-02-15T01:23:50.962Z,3.04
2023-02-15T01:28:54.169Z,3.02
2023-02-15T01:33:57.188Z,2.97
2023-02-15T01:39:01.508Z,2.96
2023-02-15T01:44:05.130Z,2.96
2023-02-15T01:49:20.913Z,2.96
2023-02-15T01:54:33.948Z,2.96
2023-02-15T01:59:38.970Z,2.97
2023-02-15T02:04:44.715Z,2.97
2023-02-15T02:09:49.321Z,2.97
2023-02-15T02:14:53.904Z,2.96
2023-02-15T02:20:18.475Z,2.97
2023-02-15T02:25:36.626Z,2.98
2023-02-15T02:30:49.260Z,2.98
2023-02-15T02:36:15.919Z,2.97
2023-02-15T02:41:50.285Z,2.96
2023-02-15T02:47:04.204Z,2.96
2023-02-15T02:52:38.038Z,2.95
2023-02-15T02:57:48.385Z,2.94
2023-02-15T03:03:00.238Z,2.94
2023-02-15T03:08:07.087Z,2.90
2023-02-15T03:13:10.535Z,2.88
2023-02-15T03:18:14.948Z,2.87
2023-02-15T03:23:23.302Z,2.84
2023-02-15T03:28:55.896Z,2.83
2023-02-15T03:34:07.212Z,2.80
2023-02-15T03:39:16.344Z,2.78
2023-02-15T03:44:31.859Z,2.77
2023-02-15T03:50:33.928Z,2.77
2023-02-15T03:55:37.649Z,2.77
2023-02-15T04:01:08.015Z,2.78
2023-02-15T04:06:10.992Z,2.78
2023-02-15T04:11:14.200Z,2.78
2023-02-15T04:16:17.113Z,2.77
2023-02-15T04:21:40.584Z,2.77
2023-02-15T04:26:44.096Z,2.77
2023-02-15T04:31:47.808Z,2.77
2023-02-15T04:36:51.749Z,2.77
2023-02-15T04:41:54.850Z,2.77
2023-02-15T04:46:58.047Z,2.76
2023-02-15T04:52:01.565Z,2.76
2023-02-15T04:57:05.079Z,2.76
2023-02-15T05:02:08.186Z,2.76
2023-02-15T05:07:11.189Z,2.77
2023-02-15T05:12:14.397Z,2.77
2023-02-15T05:17:17.706Z,2.77
2023-02-15T05:22:20.809Z,2.78
2023-02-15T05:27:42.961Z,2.76
2023-02-15T05:32:46.152Z,2.74
2023-02-15T05:37:49.384Z,2.74
2023-02-15T05:42:52.802Z,2.73
2023-02-15T05:47:56.414Z,2.72
2023-02-15T05:52:59.521Z,2.71
2023-02-15T05:58:02.629Z,2.71
2023-02-15T06:03:05.616Z,2.72
2023-02-15T06:08:08.843Z,2.72
2023-02-15T06:13:12.044Z,2.74
2023-02-15T06:18:15.149Z,2.75
2023-02-15T06:23:18.772Z,2.77
2023-02-15T06:28:24.005Z,2.79
2023-02-15T06:33:27.645Z,2.80
2023-02-15T06:38:32.291Z,2.83
2023-02-15T06:43:35.799Z,2.87
2023-02-15T06:48:39.621Z,2.90
2023-02-15T06:53:43.960Z,2.94
2023-02-15T06:58:47.472Z,2.97
2023-02-15T07:03:51.094Z,3.00
2023-02-15T07:08:54.804Z,3.02
2023-02-15T07:13:58.576Z,3.06
2023-02-15T07:19:01.551Z,3.12
2023-02-15T07:24:04.832Z,3.17
2023-02-15T07:29:08.450Z,3.22
2023-02-15T07:34:12.758Z,3.27
2023-02-15T07:39:15.993Z,3.33
2023-02-15T07:44:19.615Z,3.38
2023-02-15T07:49:22.717Z,3.44
2023-02-15T07:54:25.719Z,3.51
2023-02-15T07:59:29.132Z,3.56
2023-02-15T08:04:32.401Z,3.60
2023-02-15T08:09:35.546Z,3.63
2023-02-15T08:14:38.759Z,3.67
2023-02-15T08:19:41.875Z,3.72
2023-02-15T08:24:44.969Z,3.75
2023-02-15T08:29:48.182Z,3.78
2023-02-15T08:34:51.712Z,3.84
2023-02-15T08:39:55.123Z,3.99
2023-02-15T08:44:58.316Z,4.13
2023-02-15T08:50:01.422Z,4.25
2023-02-15T08:55:05.754Z,4.32
2023-02-15T09:00:11.542Z,4.35
2023-02-15T09:05:16.369Z,4.38
2023-02-15T09:10:20.296Z,4.42
2023-02-15T09:15:23.400Z,4.48
2023-02-15T09:20:26.712Z,4.61
2023-02-15T09:25:30.221Z,4.66
2023-02-15T09:30:33.669Z,4.67
2023-02-15T09:35:37.762Z,4.68
2023-02-15T09:40:51.414Z,4.71
2023-02-15T09:46:06.416Z,4.73
2023-02-15T09:51:50.974Z,4.79
2023-02-15T09:57:05.763Z,4.94
2023-02-15T10:02:32.008Z,5.14
2023-02-15T10:07:44.019Z,5.30
2023-02-15T10:13:20.204Z,5.39
2023-02-15T10:18:44.002Z,5.43
2023-02-15T10:23:47.102Z,5.46
2023-02-15T10:28:54.972Z,5.51
2023-02-15T10:34:40.821Z,5.58
2023-02-15T10:40:31.545Z,5.64
2023-02-15T10:45:48.630Z,5.69
2023-02-15T10:50:58.274Z,5.65
2023-02-15T10:56:27.965Z,5.63
2023-02-15T11:01:56.664Z,5.61
2023-02-15T11:07:05.203Z,5.57
2023-02-15T11:12:14.724Z,5.57
2023-02-15T11:17:29.744Z,5.57
2023-02-15T11:22:35.100Z,5.53
2023-02-15T11:27:39.007Z,5.48
2023-02-15T11:32:47.398Z,5.45
2023-02-15T11:38:02.242Z,5.47
2023-02-15T11:43:33.598Z,5.48
2023-02-15T11:48:37.419Z,5.49
2023-02-15T11:53:41.092Z,5.49
2023-02-15T11:59:04.734Z,5.49
2023-02-15T12:04:17.343Z,5.52
2023-02-15T12:09:23.784Z,5.55
2023-02-15T12:14:27.169Z,5.52
2023-02-15T12:19:32.504Z,5.51
2023-02-15T12:24:45.445Z,5.48
2023-02-15T12:30:09.639Z,5.40
2023-02-15T12:35:28.209Z,5.33
2023-02-15T12:40:34.422Z,5.22
2023-02-15T12:45:39.540Z,5.10
2023-02-15T12:50:55.829Z,4.98
2023-02-15T12:56:04.806Z,4.90
2023-02-15T13:01:13.889Z,4.89
2023-02-15T13:06:19.810Z,4.89
2023-02-15T13:11:31.102Z,4.84
2023-02-15T13:16:41.086Z,4.78
2023-02-15T13:21:51.463Z,4.72
2023-02-15T13:27:13.192Z,4.69
2023-02-15T13:32:44.987Z,4.67
2023-02-15T13:38:07.899Z,4.64
2023-02-15T13:43:49.784Z,4.61
2023-02-15T13:49:05.260Z,4.57
2023-02-15T13:54:23.416Z,4.50
2023-02-15T13:59:32.821Z,4.48
2023-02-15T14:05:04.149Z,4.50
2023-02-15T14:10:35.503Z,4.51
2023-02-15T14:16:06.086Z,4.52
2023-02-15T14:21:32.046Z,4.50
2023-02-15T14:26:44.313Z,4.42
2023-02-15T14:31:53.637Z,4.35
2023-02-15T14:36:58.158Z,4.31
2023-02-15T14:42:27.418Z,4.29
2023-02-15T14:47:39.543Z,4.27
2023-02-15T14:53:22.789Z,4.22
2023-02-15T14:58:26.200Z,4.17
2023-02-15T15:03:29.256Z,4.14
2023-02-15T15:08:41.277Z,4.12
2023-02-15T15:13:59.282Z,4.09
2023-02-15T15:19:04.642Z,4.06
2023-02-15T15:24:08.368Z,4.02
2023-02-15T15:29:11.763Z,3.98
2023-02-15T15:34:37.400Z,3.95
2023-02-15T15:39:52.783Z,3.92
2023-02-15T15:45:36.443Z,3.87
2023-02-15T15:50:43.825Z,3.82
2023-02-15T15:55:50.434Z,3.79
2023-02-15T16:01:12.898Z,3.76
2023-02-15T16:06:39.411Z,3.72
2023-02-15T16:11:44.788Z,3.68
2023-02-15T16:16:52.527Z,3.64
2023-02-15T16:22:00.413Z,3.63
2023-02-15T16:27:26.076Z,3.61
2023-02-15T16:32:30.507Z,3.60
2023-02-15T16:37:35.433Z,3.60
2023-02-15T16:42:39.178Z,3.62
2023-02-15T16:47:47.398Z,3.62
2023-02-15T16:52:52.761Z,3.64
2023-02-15T16:58:01.808Z,3.64
2023-02-15T17:03:15.764Z,3.65
2023-02-15T17:08:26.243Z,3.64
2023-02-15T17:13:30.294Z,3.63
2023-02-15T17:18:47.208Z,3.63
2023-02-15T17:23:53.525Z,3.61
2023-02-15T17:29:03.142Z,3.60
2023-02-15T17:34:06.808Z,3.61
2023-02-15T17:39:23.469Z,3.61
2023-02-15T17:44:26.691Z,3.60
2023-02-15T17:49:36.247Z,3.58
2023-02-15T17:54:58.194Z,3.57
2023-02-15T18:00:21.070Z,3.56
2023-02-15T18:05:44.796Z,3.56
2023-02-15T18:11:07.114Z,3.56
2023-02-15T18:16:15.223Z,3.56
2023-02-15T18:21:18.753Z,3.56
2023-02-15T18:26:26.436Z,3.55
2023-02-15T18:31:31.923Z,3.55
2023-02-15T18:36:45.682Z,3.54
2023-02-15T18:41:49.610Z,3.53
2023-02-15T18:46:52.917Z,3.52
2023-02-15T18:51:56.324Z,3.49
2023-02-15T18:57:01.992Z,3.48
2023-02-15T19:02:15.218Z,3.45
2023-02-15T19:07:35.852Z,3.43
2023-02-15T19:12:39.475Z,3.41
2023-02-15T19:17:42.885Z,3.39
2023-02-15T19:22:48.755Z,3.38
2023-02-15T19:27:53.192Z,3.37
2023-02-15T19:32:57.939Z,3.34
2023-02-15T19:38:06.242Z,3.31
2023-02-15T19:43:19.814Z,3.28
2023-02-15T19:48:24.148Z,3.26
2023-02-15T19:53:29.577Z,3.24
2023-02-15T19:58:34.156Z,3.22
2023-02-15T20:03:37.774Z,3.22
2023-02-15T20:08:42.734Z,3.21
2023-02-15T20:13:46.555Z,3.20
2023-02-15T20:18:49.947Z,3.18
2023-02-15T20:23:53.466Z,3.16
2023-02-15T20:28:56.901Z,3.16
2023-02-15T20:34:00.193Z,3.15
2023-02-15T20:39:12.664Z,3.16
2023-02-15T20:44:15.826Z,3.16
2023-02-15T20:49:19.657Z,3.15
2023-02-15T20:54:36.205Z,3.14
2023-02-15T20:59:41.012Z,3.15
2023-02-15T21:04:46.027Z,3.13
2023-02-15T21:09:50.052Z,3.12
2023-02-15T21:14:53.400Z,3.11
2023-02-15T21:19:56.405Z,3.10
2023-02-15T21:25:01.280Z,3.08
2023-02-15T21:30:20.053Z,3.05
2023-02-15T21:35:23.696Z,3.02
2023-02-15T21:40:29.574Z,3.00
2023-02-15T21:45:52.384Z,2.98
2023-02-15T21:51:14.553Z,2.96
2023-02-15T21:56:23.754Z,2.94
2023-02-15T22:01:29.197Z,2.93
2023-02-15T22:06:32.461Z,2.92
2023-02-15T22:11:35.867Z,2.90
2023-02-15T22:16:39.003Z,2.90
2023-02-15T22:21:42.699Z,2.90
2023-02-15T22:26:45.901Z,2.90
2023-02-15T22:31:49.845Z,2.87
2023-02-15T22:36:53.849Z,2.84
2023-02-15T22:41:57.467Z,2.81
2023-02-15T22:47:01.289Z,2.77
2023-02-15T22:52:06.651Z,2.74
2023-02-15T22:57:18.661Z,2.72
2023-02-15T23:02:21.876Z,2.71
2023-02-15T23:07:24.870Z,2.71
2023-02-15T23:12:50.731Z,2.71
2023-02-15T23:17:53.822Z,2.72
2023-02-15T23:22:56.931Z,2.73
2023-02-15T23:28:00.042Z,2.74
2023-02-15T23:33:03.235Z,2.74
2023-02-15T23:38:19.350Z,2.74
2023-02-15T23:43:23.375Z,2.74
2023-02-15T23:48:35.249Z,2.73
2023-02-15T23:53:38.294Z,2.73
2023-02-15T23:58:44.175Z,2.74
